sensor_id;sensor_type;location;lat;lon;timestamp;P1;P2;P0
73623;PMS5003;61921;53.226;-1.296;2023-06-04T00:00:11;10;9;
73623;PMS5003;61921;53.226;-1.296;2023-06-04T00:02:36;10;10;
73623;PMS5003;61921;53.226;-1.296;2023-06-04T00:05:02;8;8;
73623;PMS5003;61921;53.226;-1.296;2023-06-04T00:07:27;9;8;
73623;PMS5003;61921;53.226;-1.296;2023-06-04T00:09:53;9;9;
73623;PMS5003;61921;53.226;-1.296;2023-06-04T00:12:18;11;10;
73623;PMS5003;61921;53.226;-1.296;2023-06-04T00:14:44;10;10;
73623;PMS5003;61921;53.226;-1.296;2023-06-04T00:17:09;9;9;
73623;PMS5003;61921;53.226;-1.296;2023-06-04T00:19:34;18;17;
73623;PMS5003;61921;53.226;-1.296;2023-06-04T00:22:00;12;10;
73623;PMS5003;61921;53.226;-1.296;2023-06-04T00:24:25;11;10;
73623;PMS5003;61921;53.226;-1.296;2023-06-04T00:26:50;10;9;
73623;PMS5003;61921;53.226;-1.296;2023-06-04T00:29:15;12;10;
73623;PMS5003;61921;53.226;-1.296;2023-06-04T00:31:42;10;9;
73623;PMS5003;61921;53.226;-1.296;2023-06-04T00:34:06;9;9;
73623;PMS5003;61921;53.226;-1.296;2023-06-04T00:36:31;11;8;
73623;PMS5003;61921;53.226;-1.296;2023-06-04T00:38:57;9;9;
73623;PMS5003;61921;53.226;-1.296;2023-06-04T00:41:22;11;9;
73623;PMS5003;61921;53.226;-1.296;2023-06-04T00:43:48;12;10;
73623;PMS5003;61921;53.226;-1.296;2023-06-04T00:46:13;13;13;
73623;PMS5003;61921;53.226;-1.296;2023-06-04T00:48:38;12;11;
73623;PMS5003;61921;53.226;-1.296;2023-06-04T00:51:04;11;11;
73623;PMS5003;61921;53.226;-1.296;2023-06-04T00:53:29;12;10;
73623;PMS5003;61921;53.226;-1.296;2023-06-04T00:55:54;9;9;
73623;PMS5003;61921;53.226;-1.296;2023-06-04T00:58:20;10;10;
73623;PMS5003;61921;53.226;-1.296;2023-06-04T01:00:45;10;8;
73623;PMS5003;61921;53.226;-1.296;2023-06-04T01:03:13;10;10;
73623;PMS5003;61921;53.226;-1.296;2023-06-04T01:05:37;12;10;
73623;PMS5003;61921;53.226;-1.296;2023-06-04T01:08:02;13;12;
73623;PMS5003;61921;53.226;-1.296;2023-06-04T01:10:27;10;9;
73623;PMS5003;61921;53.226;-1.296;2023-06-04T01:12:52;12;10;
73623;PMS5003;61921;53.226;-1.296;2023-06-04T01:15:18;12;11;
73623;PMS5003;61921;53.226;-1.296;2023-06-04T01:17:44;11;10;
73623;PMS5003;61921;53.226;-1.296;2023-06-04T01:20:14;13;11;
73623;PMS5003;61921;53.226;-1.296;2023-06-04T01:22:36;10;10;
73623;PMS5003;61921;53.226;-1.296;2023-06-04T01:25:02;18;16;
73623;PMS5003;61921;53.226;-1.296;2023-06-04T01:27:25;22;18;
73623;PMS5003;61921;53.226;-1.296;2023-06-04T01:29:50;19;16;
73623;PMS5003;61921;53.226;-1.296;2023-06-04T01:32:16;17;15;
73623;PMS5003;61921;53.226;-1.296;2023-06-04T01:34:43;15;13;
73623;PMS5003;61921;53.226;-1.296;2023-06-04T01:37:07;15;14;
73623;PMS5003;61921;53.226;-1.296;2023-06-04T01:39:33;13;11;
73623;PMS5003;61921;53.226;-1.296;2023-06-04T01:41:58;15;14;
73623;PMS5003;61921;53.226;-1.296;2023-06-04T01:44:24;19;18;
73623;PMS5003;61921;53.226;-1.296;2023-06-04T01:46:50;15;15;
73623;PMS5003;61921;53.226;-1.296;2023-06-04T01:49:15;11;11;
73623;PMS5003;61921;53.226;-1.296;2023-06-04T01:51:41;12;11;
73623;PMS5003;61921;53.226;-1.296;2023-06-04T01:54:06;12;11;
73623;PMS5003;61921;53.226;-1.296;2023-06-04T01:56:31;12;12;
73623;PMS5003;61921;53.226;-1.296;2023-06-04T01:58:57;13;11;
73623;PMS5003;61921;53.226;-1.296;2023-06-04T02:01:23;13;10;
73623;PMS5003;61921;53.226;-1.296;2023-06-04T02:03:48;11;11;
73623;PMS5003;61921;53.226;-1.296;2023-06-04T02:06:14;9;9;
73623;PMS5003;61921;53.226;-1.296;2023-06-04T02:08:39;12;11;
73623;PMS5003;61921;53.226;-1.296;2023-06-04T02:11:05;9;9;
73623;PMS5003;61921;53.226;-1.296;2023-06-04T02:13:30;13;11;
73623;PMS5003;61921;53.226;-1.296;2023-06-04T02:15:56;10;10;
73623;PMS5003;61921;53.226;-1.296;2023-06-04T02:18:21;11;11;
73623;PMS5003;61921;53.226;-1.296;2023-06-04T02:20:47;8;8;
73623;PMS5003;61921;53.226;-1.296;2023-06-04T02:23:13;12;12;
73623;PMS5003;61921;53.226;-1.296;2023-06-04T02:25:37;16;13;
73623;PMS5003;61921;53.226;-1.296;2023-06-04T02:28:03;21;19;
73623;PMS5003;61921;53.226;-1.296;2023-06-04T02:30:28;12;12;
73623;PMS5003;61921;53.226;-1.296;2023-06-04T02:32:53;17;15;
73623;PMS5003;61921;53.226;-1.296;2023-06-04T02:35:19;19;15;
73623;PMS5003;61921;53.226;-1.296;2023-06-04T02:37:44;15;12;
73623;PMS5003;61921;53.226;-1.296;2023-06-04T02:40:10;14;11;
73623;PMS5003;61921;53.226;-1.296;2023-06-04T02:42:35;11;11;
73623;PMS5003;61921;53.226;-1.296;2023-06-04T02:45:00;14;11;
73623;PMS5003;61921;53.226;-1.296;2023-06-04T02:47:26;10;10;
73623;PMS5003;61921;53.226;-1.296;2023-06-04T02:49:51;14;14;
73623;PMS5003;61921;53.226;-1.296;2023-06-04T02:52:17;11;11;
73623;PMS5003;61921;53.226;-1.296;2023-06-04T02:54:42;15;15;
73623;PMS5003;61921;53.226;-1.296;2023-06-04T02:57:08;12;10;
73623;PMS5003;61921;53.226;-1.296;2023-06-04T02:59:33;19;13;
73623;PMS5003;61921;53.226;-1.296;2023-06-04T03:01:58;12;12;
73623;PMS5003;61921;53.226;-1.296;2023-06-04T03:04:24;14;13;
73623;PMS5003;61921;53.226;-1.296;2023-06-04T03:06:50;14;11;
73623;PMS5003;61921;53.226;-1.296;2023-06-04T03:09:15;14;12;
73623;PMS5003;61921;53.226;-1.296;2023-06-04T03:11:41;14;14;
73623;PMS5003;61921;53.226;-1.296;2023-06-04T03:14:06;14;12;
73623;PMS5003;61921;53.226;-1.296;2023-06-04T03:16:32;14;13;
73623;PMS5003;61921;53.226;-1.296;2023-06-04T03:18:57;15;13;
73623;PMS5003;61921;53.226;-1.296;2023-06-04T03:21:22;13;13;
73623;PMS5003;61921;53.226;-1.296;2023-06-04T03:23:48;15;14;
73623;PMS5003;61921;53.226;-1.296;2023-06-04T03:26:14;15;14;
73623;PMS5003;61921;53.226;-1.296;2023-06-04T03:28:40;15;15;
73623;PMS5003;61921;53.226;-1.296;2023-06-04T03:31:05;14;13;
73623;PMS5003;61921;53.226;-1.296;2023-06-04T03:33:30;19;15;
73623;PMS5003;61921;53.226;-1.296;2023-06-04T03:35:56;14;12;
73623;PMS5003;61921;53.226;-1.296;2023-06-04T03:38:21;11;11;
73623;PMS5003;61921;53.226;-1.296;2023-06-04T03:40:46;17;13;
73623;PMS5003;61921;53.226;-1.296;2023-06-04T03:43:12;17;17;
73623;PMS5003;61921;53.226;-1.296;2023-06-04T03:45:37;11;11;
73623;PMS5003;61921;53.226;-1.296;2023-06-04T03:48:02;15;14;
73623;PMS5003;61921;53.226;-1.296;2023-06-04T03:50:27;14;13;
73623;PMS5003;61921;53.226;-1.296;2023-06-04T03:52:52;14;13;
73623;PMS5003;61921;53.226;-1.296;2023-06-04T03:55:18;18;15;
73623;PMS5003;61921;53.226;-1.296;2023-06-04T03:57:44;12;12;
73623;PMS5003;61921;53.226;-1.296;2023-06-04T04:00:09;14;14;
73623;PMS5003;61921;53.226;-1.296;2023-06-04T04:02:35;16;15;
73623;PMS5003;61921;53.226;-1.296;2023-06-04T04:05:00;19;16;
73623;PMS5003;61921;53.226;-1.296;2023-06-04T04:07:26;26;22;
73623;PMS5003;61921;53.226;-1.296;2023-06-04T04:09:51;17;16;
73623;PMS5003;61921;53.226;-1.296;2023-06-04T04:12:17;15;14;
73623;PMS5003;61921;53.226;-1.296;2023-06-04T04:14:42;17;15;
73623;PMS5003;61921;53.226;-1.296;2023-06-04T04:17:08;21;17;
73623;PMS5003;61921;53.226;-1.296;2023-06-04T04:19:33;15;15;
73623;PMS5003;61921;53.226;-1.296;2023-06-04T04:21:58;19;16;
73623;PMS5003;61921;53.226;-1.296;2023-06-04T04:24:24;26;22;
73623;PMS5003;61921;53.226;-1.296;2023-06-04T04:26:49;19;15;
73623;PMS5003;61921;53.226;-1.296;2023-06-04T04:29:14;20;18;
73623;PMS5003;61921;53.226;-1.296;2023-06-04T04:31:40;16;14;
73623;PMS5003;61921;53.226;-1.296;2023-06-04T04:34:07;21;18;
73623;PMS5003;61921;53.226;-1.296;2023-06-04T04:36:31;15;14;
73623;PMS5003;61921;53.226;-1.296;2023-06-04T04:38:57;17;16;
73623;PMS5003;61921;53.226;-1.296;2023-06-04T04:41:22;16;15;
73623;PMS5003;61921;53.226;-1.296;2023-06-04T04:43:47;17;16;
73623;PMS5003;61921;53.226;-1.296;2023-06-04T04:46:13;15;14;
73623;PMS5003;61921;53.226;-1.296;2023-06-04T04:48:38;15;15;
73623;PMS5003;61921;53.226;-1.296;2023-06-04T04:51:04;15;15;
73623;PMS5003;61921;53.226;-1.296;2023-06-04T04:53:29;18;15;
73623;PMS5003;61921;53.226;-1.296;2023-06-04T04:55:56;17;13;
73623;PMS5003;61921;53.226;-1.296;2023-06-04T04:58:21;20;17;
73623;PMS5003;61921;53.226;-1.296;2023-06-04T05:00:46;16;14;
73623;PMS5003;61921;53.226;-1.296;2023-06-04T05:03:11;16;14;
73623;PMS5003;61921;53.226;-1.296;2023-06-04T05:05:36;12;11;
73623;PMS5003;61921;53.226;-1.296;2023-06-04T05:08:02;15;11;
73623;PMS5003;61921;53.226;-1.296;2023-06-04T05:10:27;15;14;
73623;PMS5003;61921;53.226;-1.296;2023-06-04T05:12:53;12;12;
73623;PMS5003;61921;53.226;-1.296;2023-06-04T05:15:18;15;15;
73623;PMS5003;61921;53.226;-1.296;2023-06-04T05:17:44;14;14;
73623;PMS5003;61921;53.226;-1.296;2023-06-04T05:20:09;11;10;
73623;PMS5003;61921;53.226;-1.296;2023-06-04T05:22:35;12;12;
73623;PMS5003;61921;53.226;-1.296;2023-06-04T05:25:00;20;16;
73623;PMS5003;61921;53.226;-1.296;2023-06-04T05:27:25;14;14;
73623;PMS5003;61921;53.226;-1.296;2023-06-04T05:29:50;13;13;
73623;PMS5003;61921;53.226;-1.296;2023-06-04T05:32:15;16;14;
73623;PMS5003;61921;53.226;-1.296;2023-06-04T05:34:41;16;13;
73623;PMS5003;61921;53.226;-1.296;2023-06-04T05:37:06;12;11;
73623;PMS5003;61921;53.226;-1.296;2023-06-04T05:39:31;11;11;
73623;PMS5003;61921;53.226;-1.296;2023-06-04T05:41:57;11;11;
73623;PMS5003;61921;53.226;-1.296;2023-06-04T05:44:22;12;11;
73623;PMS5003;61921;53.226;-1.296;2023-06-04T05:46:48;12;12;
73623;PMS5003;61921;53.226;-1.296;2023-06-04T05:49:13;11;9;
73623;PMS5003;61921;53.226;-1.296;2023-06-04T05:51:39;12;12;
73623;PMS5003;61921;53.226;-1.296;2023-06-04T05:54:04;12;12;
73623;PMS5003;61921;53.226;-1.296;2023-06-04T05:56:30;13;12;
73623;PMS5003;61921;53.226;-1.296;2023-06-04T05:58:55;10;9;
73623;PMS5003;61921;53.226;-1.296;2023-06-04T06:01:20;16;14;
73623;PMS5003;61921;53.226;-1.296;2023-06-04T06:03:46;10;10;
73623;PMS5003;61921;53.226;-1.296;2023-06-04T06:06:12;11;9;
73623;PMS5003;61921;53.226;-1.296;2023-06-04T06:08:37;10;10;
73623;PMS5003;61921;53.226;-1.296;2023-06-04T06:11:02;10;10;
73623;PMS5003;61921;53.226;-1.296;2023-06-04T06:13:27;9;9;
73623;PMS5003;61921;53.226;-1.296;2023-06-04T06:15:54;9;8;
73623;PMS5003;61921;53.226;-1.296;2023-06-04T06:18:17;9;9;
73623;PMS5003;61921;53.226;-1.296;2023-06-04T06:20:43;13;12;
73623;PMS5003;61921;53.226;-1.296;2023-06-04T06:23:08;9;9;
73623;PMS5003;61921;53.226;-1.296;2023-06-04T06:25:34;13;11;
73623;PMS5003;61921;53.226;-1.296;2023-06-04T06:27:59;10;10;
73623;PMS5003;61921;53.226;-1.296;2023-06-04T06:30:24;11;9;
73623;PMS5003;61921;53.226;-1.296;2023-06-04T06:32:49;13;12;
73623;PMS5003;61921;53.226;-1.296;2023-06-04T06:35:14;11;10;
73623;PMS5003;61921;53.226;-1.296;2023-06-04T06:37:40;9;9;
73623;PMS5003;61921;53.226;-1.296;2023-06-04T06:40:06;11;11;
73623;PMS5003;61921;53.226;-1.296;2023-06-04T06:42:32;10;9;
73623;PMS5003;61921;53.226;-1.296;2023-06-04T06:44:55;13;12;
73623;PMS5003;61921;53.226;-1.296;2023-06-04T06:47:21;10;10;
73623;PMS5003;61921;53.226;-1.296;2023-06-04T06:49:46;14;12;
73623;PMS5003;61921;53.226;-1.296;2023-06-04T06:52:11;11;10;
73623;PMS5003;61921;53.226;-1.296;2023-06-04T06:54:37;10;10;
73623;PMS5003;61921;53.226;-1.296;2023-06-04T06:57:02;9;9;
73623;PMS5003;61921;53.226;-1.296;2023-06-04T06:59:27;11;10;
73623;PMS5003;61921;53.226;-1.296;2023-06-04T07:01:52;10;9;
73623;PMS5003;61921;53.226;-1.296;2023-06-04T07:04:18;9;9;
73623;PMS5003;61921;53.226;-1.296;2023-06-04T07:06:43;13;10;
73623;PMS5003;61921;53.226;-1.296;2023-06-04T07:09:08;10;10;
73623;PMS5003;61921;53.226;-1.296;2023-06-04T07:11:33;14;11;
73623;PMS5003;61921;53.226;-1.296;2023-06-04T07:13:59;9;9;
73623;PMS5003;61921;53.226;-1.296;2023-06-04T07:16:24;10;10;
73623;PMS5003;61921;53.226;-1.296;2023-06-04T07:18:49;11;11;
73623;PMS5003;61921;53.226;-1.296;2023-06-04T07:21:15;9;9;
73623;PMS5003;61921;53.226;-1.296;2023-06-04T07:23:40;11;11;
73623;PMS5003;61921;53.226;-1.296;2023-06-04T07:26:06;13;10;
73623;PMS5003;61921;53.226;-1.296;2023-06-04T07:28:31;9;8;
73623;PMS5003;61921;53.226;-1.296;2023-06-04T07:30:56;7;7;
73623;PMS5003;61921;53.226;-1.296;2023-06-04T07:33:22;12;11;
73623;PMS5003;61921;53.226;-1.296;2023-06-04T07:35:47;14;11;
73623;PMS5003;61921;53.226;-1.296;2023-06-04T07:38:12;8;7;
73623;PMS5003;61921;53.226;-1.296;2023-06-04T07:40:38;8;8;
73623;PMS5003;61921;53.226;-1.296;2023-06-04T07:43:03;11;10;
73623;PMS5003;61921;53.226;-1.296;2023-06-04T07:45:28;9;8;
73623;PMS5003;61921;53.226;-1.296;2023-06-04T07:47:54;13;11;
73623;PMS5003;61921;53.226;-1.296;2023-06-04T07:50:19;13;10;
73623;PMS5003;61921;53.226;-1.296;2023-06-04T07:52:44;9;8;
73623;PMS5003;61921;53.226;-1.296;2023-06-04T07:55:10;8;8;
73623;PMS5003;61921;53.226;-1.296;2023-06-04T07:57:35;9;9;
73623;PMS5003;61921;53.226;-1.296;2023-06-04T08:00:01;11;9;
73623;PMS5003;61921;53.226;-1.296;2023-06-04T08:02:26;9;8;
73623;PMS5003;61921;53.226;-1.296;2023-06-04T08:04:51;12;11;
73623;PMS5003;61921;53.226;-1.296;2023-06-04T08:07:17;11;10;
73623;PMS5003;61921;53.226;-1.296;2023-06-04T08:09:42;8;8;
73623;PMS5003;61921;53.226;-1.296;2023-06-04T08:12:07;9;8;
73623;PMS5003;61921;53.226;-1.296;2023-06-04T08:14:33;15;11;
73623;PMS5003;61921;53.226;-1.296;2023-06-04T08:16:58;7;7;
73623;PMS5003;61921;53.226;-1.296;2023-06-04T08:19:23;10;9;
73623;PMS5003;61921;53.226;-1.296;2023-06-04T08:21:49;7;7;
73623;PMS5003;61921;53.226;-1.296;2023-06-04T08:24:14;10;8;
73623;PMS5003;61921;53.226;-1.296;2023-06-04T08:26:40;8;8;
73623;PMS5003;61921;53.226;-1.296;2023-06-04T08:29:05;8;8;
73623;PMS5003;61921;53.226;-1.296;2023-06-04T08:31:31;7;6;
73623;PMS5003;61921;53.226;-1.296;2023-06-04T08:33:56;6;6;
73623;PMS5003;61921;53.226;-1.296;2023-06-04T08:36:21;7;7;
73623;PMS5003;61921;53.226;-1.296;2023-06-04T08:38:46;8;8;
73623;PMS5003;61921;53.226;-1.296;2023-06-04T08:41:13;7;7;
73623;PMS5003;61921;53.226;-1.296;2023-06-04T08:43:37;7;7;
73623;PMS5003;61921;53.226;-1.296;2023-06-04T08:46:03;8;8;
73623;PMS5003;61921;53.226;-1.296;2023-06-04T08:48:28;9;9;
73623;PMS5003;61921;53.226;-1.296;2023-06-04T08:50:53;7;6;
73623;PMS5003;61921;53.226;-1.296;2023-06-04T08:53:18;7;7;
73623;PMS5003;61921;53.226;-1.296;2023-06-04T08:55:43;9;7;
73623;PMS5003;61921;53.226;-1.296;2023-06-04T08:58:09;6;6;
73623;PMS5003;61921;53.226;-1.296;2023-06-04T09:00:34;7;7;
73623;PMS5003;61921;53.226;-1.296;2023-06-04T09:03:01;7;7;
73623;PMS5003;61921;53.226;-1.296;2023-06-04T09:05:25;7;7;
73623;PMS5003;61921;53.226;-1.296;2023-06-04T09:07:52;8;8;
73623;PMS5003;61921;53.226;-1.296;2023-06-04T09:10:17;7;7;
73623;PMS5003;61921;53.226;-1.296;2023-06-04T09:12:41;7;6;
73623;PMS5003;61921;53.226;-1.296;2023-06-04T09:15:06;7;7;
73623;PMS5003;61921;53.226;-1.296;2023-06-04T09:17:31;12;8;
73623;PMS5003;61921;53.226;-1.296;2023-06-04T09:19:56;7;7;
73623;PMS5003;61921;53.226;-1.296;2023-06-04T09:24:47;7;6;
73623;PMS5003;61921;53.226;-1.296;2023-06-04T09:27:12;9;8;
73623;PMS5003;61921;53.226;-1.296;2023-06-04T09:29:37;8;8;
73623;PMS5003;61921;53.226;-1.296;2023-06-04T09:32:03;6;6;
73623;PMS5003;61921;53.226;-1.296;2023-06-04T09:34:28;7;7;
73623;PMS5003;61921;53.226;-1.296;2023-06-04T09:36:53;11;10;
73623;PMS5003;61921;53.226;-1.296;2023-06-04T09:39:19;12;10;
73623;PMS5003;61921;53.226;-1.296;2023-06-04T09:41:45;10;9;
73623;PMS5003;61921;53.226;-1.296;2023-06-04T09:44:10;10;9;
73623;PMS5003;61921;53.226;-1.296;2023-06-04T09:46:35;11;9;
73623;PMS5003;61921;53.226;-1.296;2023-06-04T09:49:01;8;8;
73623;PMS5003;61921;53.226;-1.296;2023-06-04T09:51:25;9;9;
73623;PMS5003;61921;53.226;-1.296;2023-06-04T09:53:54;10;7;
73623;PMS5003;61921;53.226;-1.296;2023-06-04T09:56:16;9;9;
73623;PMS5003;61921;53.226;-1.296;2023-06-04T09:58:41;8;8;
73623;PMS5003;61921;53.226;-1.296;2023-06-04T10:01:06;9;9;
73623;PMS5003;61921;53.226;-1.296;2023-06-04T10:03:32;6;5;
73623;PMS5003;61921;53.226;-1.296;2023-06-04T10:05:57;9;7;
73623;PMS5003;61921;53.226;-1.296;2023-06-04T10:08:22;10;8;
73623;PMS5003;61921;53.226;-1.296;2023-06-04T10:10:47;10;9;
73623;PMS5003;61921;53.226;-1.296;2023-06-04T10:13:14;9;9;
73623;PMS5003;61921;53.226;-1.296;2023-06-04T10:15:38;11;9;
73623;PMS5003;61921;53.226;-1.296;2023-06-04T10:18:03;8;8;
73623;PMS5003;61921;53.226;-1.296;2023-06-04T10:20:28;9;8;
73623;PMS5003;61921;53.226;-1.296;2023-06-04T10:22:53;6;6;
73623;PMS5003;61921;53.226;-1.296;2023-06-04T10:25:19;11;10;
73623;PMS5003;61921;53.226;-1.296;2023-06-04T10:27:45;13;10;
73623;PMS5003;61921;53.226;-1.296;2023-06-04T10:30:11;7;7;
73623;PMS5003;61921;53.226;-1.296;2023-06-04T10:32:35;10;9;
73623;PMS5003;61921;53.226;-1.296;2023-06-04T10:35:03;7;7;
73623;PMS5003;61921;53.226;-1.296;2023-06-04T10:37:26;10;8;
73623;PMS5003;61921;53.226;-1.296;2023-06-04T10:39:51;7;7;
73623;PMS5003;61921;53.226;-1.296;2023-06-04T10:42:16;8;8;
73623;PMS5003;61921;53.226;-1.296;2023-06-04T10:44:44;6;6;
73623;PMS5003;61921;53.226;-1.296;2023-06-04T10:47:06;11;8;
73623;PMS5003;61921;53.226;-1.296;2023-06-04T10:49:31;7;7;
73623;PMS5003;61921;53.226;-1.296;2023-06-04T10:51:57;8;7;
73623;PMS5003;61921;53.226;-1.296;2023-06-04T10:54:22;6;6;
73623;PMS5003;61921;53.226;-1.296;2023-06-04T10:56:47;9;7;
73623;PMS5003;61921;53.226;-1.296;2023-06-04T10:59:13;11;9;
73623;PMS5003;61921;53.226;-1.296;2023-06-04T11:01:37;9;8;
73623;PMS5003;61921;53.226;-1.296;2023-06-04T11:04:03;7;7;
73623;PMS5003;61921;53.226;-1.296;2023-06-04T11:06:28;7;7;
73623;PMS5003;61921;53.226;-1.296;2023-06-04T11:11:18;8;7;
73623;PMS5003;61921;53.226;-1.296;2023-06-04T11:13:43;8;8;
73623;PMS5003;61921;53.226;-1.296;2023-06-04T11:16:14;6;6;
73623;PMS5003;61921;53.226;-1.296;2023-06-04T11:18:34;9;9;
73623;PMS5003;61921;53.226;-1.296;2023-06-04T11:20:59;10;8;
73623;PMS5003;61921;53.226;-1.296;2023-06-04T11:23:24;8;7;
73623;PMS5003;61921;53.226;-1.296;2023-06-04T11:25:51;9;8;
73623;PMS5003;61921;53.226;-1.296;2023-06-04T11:28:15;10;10;
73623;PMS5003;61921;53.226;-1.296;2023-06-04T11:30:40;8;8;
73623;PMS5003;61921;53.226;-1.296;2023-06-04T11:33:05;8;8;
73623;PMS5003;61921;53.226;-1.296;2023-06-04T11:35:30;11;8;
73623;PMS5003;61921;53.226;-1.296;2023-06-04T11:37:55;9;8;
73623;PMS5003;61921;53.226;-1.296;2023-06-04T11:40:20;8;7;
73623;PMS5003;61921;53.226;-1.296;2023-06-04T11:42:45;9;8;
73623;PMS5003;61921;53.226;-1.296;2023-06-04T11:45:11;9;8;
73623;PMS5003;61921;53.226;-1.296;2023-06-04T11:47:36;5;5;
73623;PMS5003;61921;53.226;-1.296;2023-06-04T11:50:01;7;7;
73623;PMS5003;61921;53.226;-1.296;2023-06-04T11:52:26;9;9;
73623;PMS5003;61921;53.226;-1.296;2023-06-04T11:54:52;11;11;
73623;PMS5003;61921;53.226;-1.296;2023-06-04T11:57:17;9;8;
73623;PMS5003;61921;53.226;-1.296;2023-06-04T11:59:42;8;8;
73623;PMS5003;61921;53.226;-1.296;2023-06-04T12:02:07;9;9;
73623;PMS5003;61921;53.226;-1.296;2023-06-04T12:04:32;9;8;
73623;PMS5003;61921;53.226;-1.296;2023-06-04T12:06:58;11;10;
73623;PMS5003;61921;53.226;-1.296;2023-06-04T12:09:22;15;11;
73623;PMS5003;61921;53.226;-1.296;2023-06-04T12:11:47;10;10;
73623;PMS5003;61921;53.226;-1.296;2023-06-04T12:14:15;14;14;
73623;PMS5003;61921;53.226;-1.296;2023-06-04T12:16:38;14;14;
73623;PMS5003;61921;53.226;-1.296;2023-06-04T12:19:05;11;11;
73623;PMS5003;61921;53.226;-1.296;2023-06-04T12:21:28;17;17;
73623;PMS5003;61921;53.226;-1.296;2023-06-04T12:24:05;17;16;
73623;PMS5003;61921;53.226;-1.296;2023-06-04T12:26:21;15;15;
73623;PMS5003;61921;53.226;-1.296;2023-06-04T12:28:44;19;15;
73623;PMS5003;61921;53.226;-1.296;2023-06-04T12:31:15;61;61;
73623;PMS5003;61921;53.226;-1.296;2023-06-04T12:33:36;18;17;
73623;PMS5003;61921;53.226;-1.296;2023-06-04T12:36:01;20;18;
73623;PMS5003;61921;53.226;-1.296;2023-06-04T12:38:27;17;17;
73623;PMS5003;61921;53.226;-1.296;2023-06-04T12:40:52;21;19;
73623;PMS5003;61921;53.226;-1.296;2023-06-04T12:43:17;20;18;
73623;PMS5003;61921;53.226;-1.296;2023-06-04T12:45:43;17;17;
73623;PMS5003;61921;53.226;-1.296;2023-06-04T12:48:08;22;19;
73623;PMS5003;61921;53.226;-1.296;2023-06-04T12:50:34;24;23;
73623;PMS5003;61921;53.226;-1.296;2023-06-04T12:53:00;25;25;
73623;PMS5003;61921;53.226;-1.296;2023-06-04T12:55:26;24;24;
73623;PMS5003;61921;53.226;-1.296;2023-06-04T12:57:51;22;22;
73623;PMS5003;61921;53.226;-1.296;2023-06-04T13:00:17;19;17;
73623;PMS5003;61921;53.226;-1.296;2023-06-04T13:02:41;17;17;
73623;PMS5003;61921;53.226;-1.296;2023-06-04T13:05:07;20;19;
73623;PMS5003;61921;53.226;-1.296;2023-06-04T13:07:32;16;16;
73623;PMS5003;61921;53.226;-1.296;2023-06-04T13:09:57;17;17;
73623;PMS5003;61921;53.226;-1.296;2023-06-04T13:12:22;19;19;
73623;PMS5003;61921;53.226;-1.296;2023-06-04T13:14:48;20;18;
73623;PMS5003;61921;53.226;-1.296;2023-06-04T13:17:14;21;19;
73623;PMS5003;61921;53.226;-1.296;2023-06-04T13:19:38;21;21;
73623;PMS5003;61921;53.226;-1.296;2023-06-04T13:22:04;20;20;
73623;PMS5003;61921;53.226;-1.296;2023-06-04T13:24:29;26;25;
73623;PMS5003;61921;53.226;-1.296;2023-06-04T13:26:54;23;22;
73623;PMS5003;61921;53.226;-1.296;2023-06-04T13:29:19;25;22;
73623;PMS5003;61921;53.226;-1.296;2023-06-04T13:31:45;24;20;
73623;PMS5003;61921;53.226;-1.296;2023-06-04T13:34:10;23;21;
73623;PMS5003;61921;53.226;-1.296;2023-06-04T13:36:36;24;23;
73623;PMS5003;61921;53.226;-1.296;2023-06-04T13:39:01;21;21;
73623;PMS5003;61921;53.226;-1.296;2023-06-04T13:41:27;21;21;
73623;PMS5003;61921;53.226;-1.296;2023-06-04T13:43:52;26;23;
73623;PMS5003;61921;53.226;-1.296;2023-06-04T13:46:17;23;22;
73623;PMS5003;61921;53.226;-1.296;2023-06-04T13:48:43;22;21;
73623;PMS5003;61921;53.226;-1.296;2023-06-04T13:51:08;22;20;
73623;PMS5003;61921;53.226;-1.296;2023-06-04T13:53:33;21;21;
73623;PMS5003;61921;53.226;-1.296;2023-06-04T13:55:59;22;22;
73623;PMS5003;61921;53.226;-1.296;2023-06-04T13:58:24;21;20;
73623;PMS5003;61921;53.226;-1.296;2023-06-04T14:00:50;20;20;
73623;PMS5003;61921;53.226;-1.296;2023-06-04T14:03:16;19;19;
73623;PMS5003;61921;53.226;-1.296;2023-06-04T14:05:41;24;22;
73623;PMS5003;61921;53.226;-1.296;2023-06-04T14:08:07;24;24;
73623;PMS5003;61921;53.226;-1.296;2023-06-04T14:10:32;22;21;
73623;PMS5003;61921;53.226;-1.296;2023-06-04T14:12:58;27;23;
73623;PMS5003;61921;53.226;-1.296;2023-06-04T14:15:23;23;21;
73623;PMS5003;61921;53.226;-1.296;2023-06-04T14:17:48;22;21;
73623;PMS5003;61921;53.226;-1.296;2023-06-04T14:20:14;22;21;
73623;PMS5003;61921;53.226;-1.296;2023-06-04T14:22:39;22;22;
73623;PMS5003;61921;53.226;-1.296;2023-06-04T14:25:04;20;19;
73623;PMS5003;61921;53.226;-1.296;2023-06-04T14:27:30;22;22;
73623;PMS5003;61921;53.226;-1.296;2023-06-04T14:29:55;21;18;
73623;PMS5003;61921;53.226;-1.296;2023-06-04T14:32:21;19;19;
73623;PMS5003;61921;53.226;-1.296;2023-06-04T14:34:47;22;19;
73623;PMS5003;61921;53.226;-1.296;2023-06-04T14:37:12;22;22;
73623;PMS5003;61921;53.226;-1.296;2023-06-04T14:39:37;22;21;
73623;PMS5003;61921;53.226;-1.296;2023-06-04T14:42:03;17;17;
73623;PMS5003;61921;53.226;-1.296;2023-06-04T14:44:28;16;16;
73623;PMS5003;61921;53.226;-1.296;2023-06-04T14:46:53;20;19;
73623;PMS5003;61921;53.226;-1.296;2023-06-04T14:49:19;20;20;
73623;PMS5003;61921;53.226;-1.296;2023-06-04T14:51:45;20;18;
73623;PMS5003;61921;53.226;-1.296;2023-06-04T14:54:09;17;16;
73623;PMS5003;61921;53.226;-1.296;2023-06-04T14:56:34;19;18;
73623;PMS5003;61921;53.226;-1.296;2023-06-04T14:59:01;22;19;
73623;PMS5003;61921;53.226;-1.296;2023-06-04T15:01:26;19;18;
73623;PMS5003;61921;53.226;-1.296;2023-06-04T15:03:51;20;19;
73623;PMS5003;61921;53.226;-1.296;2023-06-04T15:06:16;20;16;
73623;PMS5003;61921;53.226;-1.296;2023-06-04T15:08:42;19;19;
73623;PMS5003;61921;53.226;-1.296;2023-06-04T15:11:07;17;15;
73623;PMS5003;61921;53.226;-1.296;2023-06-04T15:13:32;18;17;
73623;PMS5003;61921;53.226;-1.296;2023-06-04T15:15:57;20;17;
73623;PMS5003;61921;53.226;-1.296;2023-06-04T15:18:23;17;17;
73623;PMS5003;61921;53.226;-1.296;2023-06-04T15:20:48;16;16;
73623;PMS5003;61921;53.226;-1.296;2023-06-04T15:23:13;14;14;
73623;PMS5003;61921;53.226;-1.296;2023-06-04T15:25:38;14;14;
73623;PMS5003;61921;53.226;-1.296;2023-06-04T15:28:03;11;11;
73623;PMS5003;61921;53.226;-1.296;2023-06-04T15:30:28;13;13;
73623;PMS5003;61921;53.226;-1.296;2023-06-04T15:32:53;14;14;
73623;PMS5003;61921;53.226;-1.296;2023-06-04T15:35:18;17;16;
73623;PMS5003;61921;53.226;-1.296;2023-06-04T15:37:43;17;15;
73623;PMS5003;61921;53.226;-1.296;2023-06-04T15:40:09;13;13;
73623;PMS5003;61921;53.226;-1.296;2023-06-04T15:42:34;12;12;
73623;PMS5003;61921;53.226;-1.296;2023-06-04T15:44:59;20;18;
73623;PMS5003;61921;53.226;-1.296;2023-06-04T15:47:25;18;18;
73623;PMS5003;61921;53.226;-1.296;2023-06-04T15:49:50;17;17;
73623;PMS5003;61921;53.226;-1.296;2023-06-04T15:52:15;17;17;
73623;PMS5003;61921;53.226;-1.296;2023-06-04T15:54:41;16;16;
73623;PMS5003;61921;53.226;-1.296;2023-06-04T15:57:06;13;13;
73623;PMS5003;61921;53.226;-1.296;2023-06-04T15:59:31;15;14;
73623;PMS5003;61921;53.226;-1.296;2023-06-04T16:01:58;17;16;